createdAt,value
2019-02-20T00:02:11.066Z,9.67
2019-02-20T00:04:39.879Z,9.73
2019-02-20T00:07:09.391Z,9.50
2019-02-20T00:09:38.262Z,8.70
2019-02-20T00:12:07.418Z,8.90
2019-02-20T00:14:36.264Z,8.00
2019-02-20T00:17:05.161Z,9.23
2019-02-20T00:19:34.080Z,9.37
2019-02-20T00:22:02.971Z,9.03
2019-02-20T00:24:32.106Z,8.17
2019-02-20T00:27:00.929Z,8.13
2019-02-20T00:29:29.742Z,9.13
2019-02-20T00:31:58.559Z,9.80
2019-02-20T00:34:27.373Z,8.90
2019-02-20T00:36:56.180Z,9.30
2019-02-20T00:39:24.996Z,9.40
2019-02-20T00:41:53.852Z,9.13
2019-02-20T00:44:41.776Z,9.50
2019-02-20T00:47:30.703Z,8.93
2019-02-20T00:50:00.413Z,8.43
2019-02-20T00:52:37.045Z,7.90
2019-02-20T00:55:06.850Z,9.07
2019-02-20T00:57:35.746Z,9.23
2019-02-20T01:00:05.316Z,9.40
2019-02-20T01:02:34.205Z,7.80
2019-02-20T01:05:03.131Z,10.20
2019-02-20T01:07:32.263Z,9.57
2019-02-20T01:10:01.128Z,10.00
2019-02-20T01:12:30.082Z,10.37
2019-02-20T01:14:59.048Z,10.10
2019-02-20T01:17:28.263Z,10.60
2019-02-20T01:19:57.090Z,8.63
2019-02-20T01:22:25.913Z,8.63
2019-02-20T01:24:54.855Z,9.70
2019-02-20T01:27:24.116Z,9.37
2019-02-20T01:29:53.045Z,10.40
2019-02-20T01:32:21.937Z,10.23
2019-02-20T01:34:50.768Z,9.70
2019-02-20T01:37:19.994Z,9.67
2019-02-20T01:39:49.559Z,9.73
2019-02-20T01:42:18.735Z,9.57
2019-02-20T01:44:47.654Z,9.97
2019-02-20T01:47:16.508Z,9.30
2019-02-20T01:49:45.363Z,8.37
2019-02-20T01:52:14.181Z,10.10
2019-02-20T01:54:43.026Z,9.20
2019-02-20T01:57:11.951Z,10.27
2019-02-20T01:59:40.761Z,9.43
2019-02-20T02:02:09.982Z,9.40
2019-02-20T02:04:38.900Z,11.17
2019-02-20T02:07:07.781Z,9.50
2019-02-20T02:09:36.608Z,9.80
2019-02-20T02:12:05.757Z,10.47
2019-02-20T02:14:34.657Z,10.83
2019-02-20T02:17:03.589Z,10.40
2019-02-20T02:19:32.485Z,9.70
2019-02-20T02:22:01.640Z,8.97
2019-02-20T02:24:30.566Z,9.70
2019-02-20T02:26:59.393Z,9.40
2019-02-20T02:29:28.623Z,9.60
2019-02-20T02:31:57.463Z,10.60
2019-02-20T02:34:26.366Z,9.77
2019-02-20T02:36:55.256Z,9.87
2019-02-20T02:39:24.214Z,9.77
2019-02-20T02:41:53.457Z,9.33
2019-02-20T02:44:22.645Z,9.90
2019-02-20T02:46:51.550Z,9.37
2019-02-20T02:49:20.368Z,10.00
2019-02-20T02:51:49.204Z,9.90
2019-02-20T02:54:18.033Z,9.70
2019-02-20T02:56:46.942Z,10.00
2019-02-20T02:59:15.766Z,10.50
2019-02-20T03:01:44.744Z,9.80
2019-02-20T03:04:13.638Z,10.10
2019-02-20T03:06:42.550Z,9.77
2019-02-20T03:09:11.448Z,8.70
2019-02-20T03:11:40.329Z,9.93
2019-02-20T03:14:09.233Z,10.43
2019-02-20T03:16:38.090Z,10.67
2019-02-20T03:19:06.953Z,10.03
2019-02-20T03:21:35.784Z,9.80
2019-02-20T03:24:04.994Z,10.80
2019-02-20T03:26:33.826Z,9.83
2019-02-20T03:29:02.717Z,9.67
2019-02-20T03:31:31.958Z,9.77
2019-02-20T03:34:00.788Z,10.50
2019-02-20T03:36:29.981Z,9.80
2019-02-20T03:38:58.797Z,8.70
2019-02-20T03:41:27.878Z,10.10
2019-02-20T03:43:57.061Z,9.70
2019-02-20T03:46:26.037Z,9.70
2019-02-20T03:48:54.926Z,9.50
2019-02-20T03:51:23.921Z,11.00
2019-02-20T03:53:52.906Z,9.07
2019-02-20T03:56:21.877Z,10.57
2019-02-20T03:58:50.786Z,10.00
2019-02-20T04:01:19.609Z,8.87
2019-02-20T04:03:48.434Z,9.27
2019-02-20T04:06:17.325Z,9.43
2019-02-20T04:08:46.159Z,10.30
2019-02-20T04:11:15.254Z,10.10
2019-02-20T04:13:44.149Z,9.20
2019-02-20T04:16:12.969Z,9.53
2019-02-20T04:18:41.948Z,9.10
2019-02-20T04:21:10.766Z,9.50
2019-02-20T04:23:39.744Z,8.37
2019-02-20T04:26:10.006Z,9.63
2019-02-20T04:28:39.037Z,9.07
2019-02-20T04:31:07.844Z,7.97
2019-02-20T04:33:36.686Z,9.80
2019-02-20T04:36:05.775Z,9.83
2019-02-20T04:38:34.605Z,9.47
2019-02-20T04:41:03.505Z,10.43
2019-02-20T04:43:32.336Z,9.80
2019-02-20T04:46:01.162Z,9.80
2019-02-20T04:48:29.993Z,11.27
2019-02-20T04:50:58.886Z,10.50
2019-02-20T04:53:27.735Z,8.77
2019-02-20T04:55:56.675Z,8.43
2019-02-20T04:58:25.515Z,8.30
2019-02-20T05:00:54.537Z,9.00
2019-02-20T05:03:23.518Z,8.87
2019-02-20T05:05:52.422Z,9.03
2019-02-20T05:08:21.246Z,9.40
2019-02-20T05:10:50.095Z,9.07
2019-02-20T05:13:19.633Z,10.00
2019-02-20T05:15:48.603Z,9.63
2019-02-20T05:18:17.828Z,9.47
2019-02-20T05:20:46.724Z,8.93
2019-02-20T05:23:15.867Z,8.80
2019-02-20T05:25:45.110Z,8.13
2019-02-20T05:28:14.127Z,8.20
2019-02-20T05:30:43.340Z,8.60
2019-02-20T05:33:12.177Z,8.60
2019-02-20T05:35:40.993Z,8.17
2019-02-20T05:38:09.898Z,8.90
2019-02-20T05:40:39.007Z,8.17
2019-02-20T05:43:07.842Z,8.07
2019-02-20T05:45:36.668Z,8.87
2019-02-20T05:48:05.570Z,9.30
2019-02-20T05:50:34.374Z,7.90
2019-02-20T05:53:03.513Z,8.43
2019-02-20T05:55:32.349Z,9.40
2019-02-20T05:58:01.197Z,9.17
2019-02-20T06:00:30.018Z,9.20
2019-02-20T06:02:58.860Z,8.03
2019-02-20T06:05:28.041Z,8.97
2019-02-20T06:07:56.872Z,8.90
2019-02-20T06:10:25.693Z,8.40
2019-02-20T06:12:54.523Z,9.27
2019-02-20T06:15:23.513Z,9.60
2019-02-20T06:17:52.404Z,9.13
2019-02-20T06:20:21.255Z,8.23
2019-02-20T06:22:50.393Z,7.40
2019-02-20T06:25:19.305Z,8.23
2019-02-20T06:27:48.119Z,8.33
2019-02-20T06:30:17.010Z,7.10
2019-02-20T06:32:45.826Z,7.47
2019-02-20T06:35:14.945Z,7.73
2019-02-20T06:37:43.765Z,7.70
2019-02-20T06:40:12.660Z,6.77
2019-02-20T06:42:41.558Z,6.83
2019-02-20T06:45:11.062Z,7.07
2019-02-20T06:47:39.985Z,7.60
2019-02-20T06:50:08.976Z,7.47
2019-02-20T06:52:37.857Z,8.27
2019-02-20T06:55:07.453Z,7.43
2019-02-20T06:57:36.666Z,7.30
2019-02-20T07:00:06.568Z,7.77
2019-02-20T07:02:35.893Z,7.40
2019-02-20T07:05:48.429Z,7.20
2019-02-20T07:08:53.513Z,6.33
2019-02-20T07:11:59.516Z,6.87
2019-02-20T07:14:54.914Z,8.03
2019-02-20T07:17:45.779Z,6.20
2019-02-20T07:20:48.005Z,7.33
2019-02-20T07:24:03.926Z,7.53
2019-02-20T07:27:13.625Z,8.67
2019-02-20T07:29:44.072Z,7.97
2019-02-20T07:32:15.665Z,7.50
2019-02-20T07:34:44.502Z,8.10
2019-02-20T07:37:13.453Z,7.70
2019-02-20T07:39:42.369Z,7.70
2019-02-20T07:42:12.225Z,8.47
2019-02-20T07:44:41.285Z,7.70
2019-02-20T07:47:10.905Z,7.00
2019-02-20T07:49:39.801Z,9.20
2019-02-20T07:52:08.704Z,7.03
2019-02-20T07:54:37.979Z,8.20
2019-02-20T07:57:07.182Z,9.17
2019-02-20T07:59:36.093Z,8.23
2019-02-20T08:02:05.081Z,8.97
2019-02-20T08:04:34.100Z,9.63
2019-02-20T08:07:03.089Z,9.83
2019-02-20T08:09:31.993Z,9.70
2019-02-20T08:12:00.843Z,10.00
2019-02-20T08:14:29.664Z,9.63
2019-02-20T08:16:58.485Z,10.13
2019-02-20T08:19:27.333Z,10.07
2019-02-20T08:21:56.163Z,11.37
2019-02-20T08:24:25.273Z,9.97
2019-02-20T08:26:54.252Z,11.50
2019-02-20T08:29:23.408Z,11.67
2019-02-20T08:31:53.870Z,11.07
2019-02-20T08:34:22.977Z,10.57
2019-02-20T08:36:51.890Z,10.20
2019-02-20T08:39:20.789Z,10.83
2019-02-20T08:41:50.230Z,11.70
2019-02-20T08:44:19.134Z,10.70
2019-02-20T08:46:48.666Z,11.10
2019-02-20T08:49:17.637Z,11.63
2019-02-20T08:51:46.471Z,11.40
2019-02-20T08:54:15.303Z,11.20
2019-02-20T08:56:44.136Z,11.50
2019-02-20T08:59:13.255Z,11.87
2019-02-20T09:01:42.177Z,11.23
2019-02-20T09:04:10.997Z,11.37
2019-02-20T09:06:39.910Z,10.60
2019-02-20T09:09:08.737Z,10.10
2019-02-20T09:11:37.572Z,10.80
2019-02-20T09:14:06.793Z,9.83
2019-02-20T09:16:35.609Z,11.30
2019-02-20T09:19:04.588Z,11.40
2019-02-20T09:21:33.737Z,12.80
2019-02-20T09:24:02.679Z,11.93
2019-02-20T09:26:31.501Z,11.30
2019-02-20T09:29:00.345Z,12.50
2019-02-20T09:31:29.171Z,11.37
2019-02-20T09:33:57.998Z,11.87
2019-02-20T09:36:26.826Z,12.50
2019-02-20T09:38:55.661Z,12.43
2019-02-20T09:41:24.553Z,9.93
2019-02-20T09:43:53.461Z,10.97
2019-02-20T09:46:22.284Z,10.20
2019-02-20T09:48:51.129Z,9.63
2019-02-20T09:51:19.950Z,9.87
2019-02-20T09:53:49.203Z,11.43
2019-02-20T09:56:18.252Z,9.93
2019-02-20T09:58:47.080Z,11.50
2019-02-20T10:01:15.904Z,10.47
2019-02-20T10:03:44.820Z,10.70
2019-02-20T10:06:13.717Z,10.10
2019-02-20T10:08:42.622Z,10.07
2019-02-20T10:11:11.749Z,9.47
2019-02-20T10:13:40.724Z,8.50
2019-02-20T10:16:09.541Z,8.20
2019-02-20T10:18:38.369Z,8.60
2019-02-20T10:21:07.209Z,7.73
2019-02-20T10:23:36.393Z,8.20
2019-02-20T10:26:05.211Z,8.73
2019-02-20T10:28:34.033Z,8.00
2019-02-20T10:31:02.861Z,9.30
2019-02-20T10:33:31.770Z,9.40
2019-02-20T10:36:00.729Z,9.17
2019-02-20T10:38:29.550Z,9.60
2019-02-20T10:40:58.727Z,9.97
2019-02-20T10:43:27.559Z,10.77
2019-02-20T10:45:56.397Z,9.80
2019-02-20T10:48:25.285Z,9.37
2019-02-20T10:50:54.117Z,9.60
2019-02-20T10:53:22.951Z,9.80
2019-02-20T10:55:51.793Z,8.20
2019-02-20T10:58:20.641Z,8.67
2019-02-20T11:00:49.581Z,10.23
2019-02-20T11:03:18.481Z,10.75
2019-02-20T11:05:47.663Z,10.97
2019-02-20T11:08:16.663Z,10.03
2019-02-20T11:10:45.915Z,8.50
2019-02-20T11:13:14.737Z,8.10
2019-02-20T11:15:43.565Z,7.37
2019-02-20T11:18:12.478Z,7.87
2019-02-20T11:20:48.254Z,6.60
2019-02-20T11:23:12.074Z,6.47
2019-02-20T11:25:41.005Z,5.33
2019-02-20T11:28:09.917Z,6.70
2019-02-20T11:30:39.113Z,5.70
2019-02-20T11:33:08.029Z,6.70
2019-02-20T11:35:36.937Z,7.17
2019-02-20T11:38:05.841Z,7.90
2019-02-20T11:40:34.671Z,6.90
2019-02-20T11:43:03.496Z,7.67
2019-02-20T11:45:32.330Z,7.00
2019-02-20T11:48:01.159Z,7.53
2019-02-20T11:50:29.993Z,7.50
2019-02-20T11:52:58.893Z,7.20
2019-02-20T11:55:28.182Z,7.40
2019-02-20T11:58:00.712Z,8.20
2019-02-20T12:00:27.726Z,7.23
2019-02-20T12:02:56.542Z,7.60
2019-02-20T12:05:25.492Z,7.30
2019-02-20T12:07:54.339Z,6.97
2019-02-20T12:10:23.311Z,7.70
2019-02-20T12:12:52.200Z,7.47
2019-02-20T12:15:21.108Z,7.10
2019-02-20T12:17:50.597Z,6.60
2019-02-20T12:20:19.493Z,5.83
2019-02-20T12:22:48.470Z,6.60
2019-02-20T12:25:17.357Z,6.63
2019-02-20T12:27:46.264Z,6.90
2019-02-20T13:27:07.598Z,11.10
2019-02-20T13:29:33.202Z,12.37
2019-02-20T13:32:02.148Z,12.00
2019-02-20T13:34:31.049Z,12.13
2019-02-20T13:36:59.968Z,11.20
2019-02-20T13:39:28.806Z,10.70
2019-02-20T13:41:57.799Z,11.33
2019-02-20T13:44:27.117Z,11.83
2019-02-20T13:46:56.401Z,10.83
2019-02-20T13:49:25.601Z,10.83
2019-02-20T13:51:54.745Z,12.10
2019-02-20T13:54:23.665Z,11.73
2019-02-20T13:56:52.485Z,11.63
2019-02-20T13:59:21.534Z,10.37
2019-02-20T14:01:50.453Z,11.67
2019-02-20T14:04:19.436Z,10.93
2019-02-20T14:06:48.265Z,11.90
2019-02-20T14:09:17.490Z,11.73
2019-02-20T14:11:46.333Z,11.63
2019-02-20T14:14:16.623Z,11.73
2019-02-20T14:16:46.009Z,11.40
2019-02-20T14:19:15.506Z,13.27
2019-02-20T14:21:44.420Z,12.47
2019-02-20T14:24:13.254Z,12.07
2019-02-20T14:26:42.141Z,11.90
2019-02-20T14:29:11.060Z,11.10
2019-02-20T14:31:39.894Z,11.90
2019-02-20T14:34:09.664Z,12.33
2019-02-20T14:36:38.932Z,11.10
2019-02-20T14:39:08.117Z,10.90
2019-02-20T14:41:37.020Z,10.70
2019-02-20T14:44:06.327Z,10.93
2019-02-20T14:46:36.310Z,10.27
2019-02-20T14:49:05.421Z,10.47
2019-02-20T14:51:34.554Z,12.20
2019-02-20T14:54:03.778Z,12.20
2019-02-20T14:56:32.612Z,13.63
2019-02-20T14:59:01.803Z,12.77
2019-02-20T15:01:30.824Z,12.37
2019-02-20T15:04:00.029Z,11.87
2019-02-20T15:06:30.198Z,12.50
2019-02-20T15:08:59.120Z,11.07
2019-02-20T15:11:28.438Z,12.40
2019-02-20T15:13:57.353Z,11.83
2019-02-20T15:16:26.257Z,12.43
2019-02-20T15:18:55.162Z,11.93
2019-02-20T15:21:24.477Z,11.67
2019-02-20T15:23:53.372Z,11.80
2019-02-20T15:26:22.495Z,11.50
2019-02-20T15:28:51.401Z,12.10
2019-02-20T15:31:21.405Z,12.50
2019-02-20T15:33:50.698Z,10.90
2019-02-20T15:36:19.617Z,11.30
2019-02-20T15:38:48.597Z,12.30
2019-02-20T15:41:17.798Z,11.17
2019-02-20T15:43:46.996Z,16.87
2019-02-20T15:46:15.990Z,16.23
2019-02-20T15:48:44.901Z,11.13
2019-02-20T15:51:13.749Z,10.73
2019-02-20T15:53:43.262Z,10.80
2019-02-20T15:56:12.632Z,10.67
2019-02-20T15:58:41.681Z,14.57
2019-02-20T16:01:11.579Z,18.17
2019-02-20T16:03:40.866Z,12.40
2019-02-20T16:06:09.705Z,13.80
2019-02-20T16:08:38.954Z,14.17
2019-02-20T16:11:07.945Z,9.90
2019-02-20T16:13:36.780Z,9.53
2019-02-20T16:16:05.706Z,9.63
2019-02-20T16:18:34.948Z,9.63
2019-02-20T16:21:04.001Z,9.30
2019-02-20T16:23:32.901Z,8.50
2019-02-20T16:26:02.307Z,8.93
2019-02-20T16:28:33.828Z,8.90
2019-02-20T16:31:01.990Z,7.70
2019-02-20T16:33:30.884Z,7.70
2019-02-20T16:35:59.789Z,7.20
2019-02-20T16:38:28.905Z,8.00
2019-02-20T16:40:58.265Z,6.10
2019-02-20T16:43:27.165Z,6.60
2019-02-20T16:45:56.077Z,6.37
2019-02-20T16:48:24.897Z,5.90
2019-02-20T16:50:54.065Z,5.77
2019-02-20T16:53:22.969Z,7.33
2019-02-20T16:55:51.875Z,7.50
2019-02-20T16:58:21.137Z,6.10
2019-02-20T17:00:50.209Z,6.10
2019-02-20T17:03:19.109Z,6.73
2019-02-20T17:05:48.656Z,7.87
2019-02-20T17:08:17.709Z,7.50
2019-02-20T17:10:46.931Z,7.63
2019-02-20T17:13:15.981Z,7.93
2019-02-20T17:15:44.949Z,6.80
2019-02-20T17:18:13.922Z,6.97
2019-02-20T17:20:43.106Z,7.37
2019-02-20T17:23:12.977Z,7.17
2019-02-20T17:25:41.865Z,6.50
2019-02-20T17:28:11.509Z,6.40
2019-02-20T17:30:40.465Z,6.80
2019-02-20T17:33:09.805Z,7.30
2019-02-20T17:35:38.636Z,12.13
2019-02-20T17:38:07.629Z,24.30
2019-02-20T17:40:36.610Z,18.00
2019-02-20T17:43:06.837Z,10.30
2019-02-20T17:45:36.309Z,7.83
2019-02-20T17:48:05.294Z,6.53
2019-02-20T17:50:34.195Z,7.33
2019-02-20T17:53:03.303Z,8.20
2019-02-20T17:55:32.482Z,7.07
2019-02-20T17:58:01.393Z,7.77
2019-02-20T18:00:30.743Z,7.07
2019-02-20T18:02:59.646Z,7.80
2019-02-20T18:05:28.533Z,6.77
2019-02-20T18:07:57.448Z,6.33
2019-02-20T18:10:26.634Z,6.57
2019-02-20T18:12:55.529Z,6.43
2019-02-20T18:15:24.827Z,6.97
2019-02-20T18:17:53.741Z,5.40
2019-02-20T18:20:25.044Z,6.70
2019-02-20T18:22:53.720Z,7.62
2019-02-20T18:25:22.545Z,14.45
2019-02-20T18:27:51.459Z,12.37
2019-02-20T18:30:20.366Z,8.03
2019-02-20T18:32:49.188Z,7.15
2019-02-20T18:35:18.610Z,6.30
2019-02-20T18:37:47.592Z,6.37
2019-02-20T18:40:16.544Z,5.93
2019-02-20T18:42:45.454Z,7.50
2019-02-20T18:45:14.673Z,11.60
2019-02-20T18:47:43.658Z,10.23
2019-02-20T18:50:12.660Z,8.28
2019-02-20T18:52:41.961Z,7.22
2019-02-20T18:55:10.971Z,5.90
2019-02-20T18:57:39.941Z,6.40
2019-02-20T19:00:11.725Z,6.28
2019-02-20T19:02:41.068Z,6.12
2019-02-20T19:05:10.703Z,6.10
2019-02-20T19:07:39.620Z,6.47
2019-02-20T19:10:12.671Z,6.12
2019-02-20T19:13:01.871Z,6.30
2019-02-20T19:16:07.728Z,7.90
2019-02-20T19:19:08.357Z,8.30
2019-02-20T19:22:11.938Z,7.90
2019-02-20T19:25:17.554Z,7.28
2019-02-20T19:28:18.148Z,7.03
2019-02-20T19:31:35.335Z,6.92
2019-02-20T19:34:44.245Z,6.90
2019-02-20T19:37:39.905Z,8.10
2019-02-20T19:40:20.831Z,8.03
2019-02-20T19:43:28.456Z,7.75
2019-02-20T19:46:50.435Z,7.47
2019-02-20T19:50:02.494Z,6.00
2019-02-20T19:52:49.184Z,7.85
2019-02-20T19:56:02.057Z,6.65
2019-02-20T19:58:57.961Z,5.37
2019-02-20T20:02:06.660Z,5.50
2019-02-20T20:05:15.723Z,6.03
2019-02-20T20:08:06.464Z,12.10
2019-02-20T20:10:48.932Z,8.55
2019-02-20T20:13:36.655Z,9.70
2019-02-20T20:16:48.272Z,8.63
2019-02-20T20:19:49.167Z,7.20
2019-02-20T20:22:39.017Z,7.10
2019-02-20T20:25:24.497Z,7.83
2019-02-20T20:28:09.052Z,10.82
2019-02-20T20:31:22.733Z,11.48
2019-02-20T20:34:07.399Z,12.33
2019-02-20T20:36:51.636Z,12.60
2019-02-20T20:39:54.617Z,12.10
2019-02-20T20:43:05.920Z,12.30
2019-02-20T20:45:48.430Z,11.20
2019-02-20T20:48:49.529Z,12.80
2019-02-20T20:51:59.780Z,9.70
2019-02-20T20:55:16.282Z,8.90
2019-02-20T20:58:18.642Z,8.50
2019-02-20T21:01:28.570Z,9.10
2019-02-20T21:04:14.742Z,9.50
2019-02-20T21:07:26.669Z,8.53
2019-02-20T21:10:37.441Z,7.40
2019-02-20T21:13:25.360Z,6.90
2019-02-20T21:16:32.250Z,7.03
2019-02-20T21:19:39.527Z,6.60
2019-02-20T21:22:31.327Z,7.25
2019-02-20T21:25:50.685Z,6.60
2019-02-20T21:28:46.681Z,6.50
2019-02-20T21:31:37.424Z,6.12
2019-02-20T21:34:56.049Z,5.30
2019-02-20T21:38:01.698Z,4.63
2019-02-20T21:41:04.660Z,4.37
2019-02-20T21:43:59.436Z,4.60
2019-02-20T21:46:51.702Z,4.45
2019-02-20T21:49:39.409Z,5.00
2019-02-20T21:52:55.455Z,5.08
2019-02-20T21:55:56.453Z,4.47
2019-02-20T21:59:06.313Z,5.22
2019-02-20T22:02:09.400Z,4.47
2019-02-20T22:05:13.502Z,5.20
2019-02-20T22:08:41.805Z,8.33
2019-02-20T22:11:40.385Z,4.80
2019-02-20T22:14:47.461Z,4.50
2019-02-20T22:17:37.210Z,4.50
2019-02-20T22:20:44.468Z,5.17
2019-02-20T22:24:03.406Z,5.37
2019-02-20T22:27:09.323Z,5.20
2019-02-20T22:30:21.665Z,5.05
2019-02-20T22:33:06.725Z,5.00
2019-02-20T22:36:17.408Z,5.50
2019-02-20T22:39:11.578Z,5.12
2019-02-20T22:42:28.122Z,5.17
2019-02-20T22:45:34.292Z,4.62
2019-02-20T22:48:32.633Z,4.90
2019-02-20T22:51:30.699Z,5.22
2019-02-20T22:54:56.563Z,5.22
2019-02-20T22:57:56.208Z,4.90
2019-02-20T23:01:11.645Z,4.90
2019-02-20T23:04:18.116Z,4.53
2019-02-20T23:07:46.909Z,5.58
2019-02-20T23:10:58.901Z,5.17
2019-02-20T23:13:39.114Z,5.70
2019-02-20T23:16:07.942Z,5.60
2019-02-20T23:18:36.845Z,5.42
2019-02-20T23:21:05.750Z,5.65
2019-02-20T23:23:35.005Z,5.33
2019-02-20T23:26:04.521Z,5.12
2019-02-20T23:28:33.361Z,5.53
2019-02-20T23:31:03.903Z,5.80
2019-02-20T23:33:32.886Z,5.40
2019-02-20T23:36:01.797Z,5.97
2019-02-20T23:38:31.026Z,7.70
2019-02-20T23:41:00.223Z,7.90
2019-02-20T23:43:29.378Z,7.67
2019-02-20T23:45:58.373Z,6.78
2019-02-20T23:48:27.189Z,6.40
2019-02-20T23:50:56.122Z,7.03
2019-02-20T23:53:25.385Z,6.58
2019-02-20T23:55:54.238Z,7.58
2019-02-20T23:58:23.129Z,7.55
